Time;durP1;ratioP1;P1;durP2;ratioP2;P2;SDS_P1;SDS_P2;PMS_P1;PMS_P2;Temp;Humidity;BMP_temperature;BMP_pressure;BME280_temperature;BME280_humidity;BME280_pressure;Samples;Min_cycle;Max_cycle;Signal;HPM_P1;HPM_P2
2023/01/12 00:01:19;;;;;;;102.15;25.38;;;;;;;;;;4956616;28;20073;-43
2023/01/12 00:03:46;;;;;;;81.22;24.75;;;;;;;;;;4957472;28;20047;-42
2023/01/12 00:06:13;;;;;;;103.20;27.23;;;;;;;;;;4959321;28;20043;-44
2023/01/12 00:08:39;;;;;;;75.47;25.17;;;;;;;;;;4962965;28;20122;-42
2023/01/12 00:11:06;;;;;;;100.95;25.80;;;;;;;;;;4955175;28;20047;-44
2023/01/12 00:13:33;;;;;;;90.50;26.85;;;;;;;;;;4957303;28;20042;-44
2023/01/12 00:18:45;;;;;;;91.00;27.50;;;;;;;;;;4962188;28;20066;-44
2023/01/12 00:21:13;;;;;;;91.80;26.95;;;;;;;;;;4959660;28;20454;-42
2023/01/12 00:23:39;;;;;;;90.18;27.05;;;;;;;;;;4960033;28;20039;-44
2023/01/12 00:26:07;;;;;;;124.25;31.30;;;;;;;;;;4957492;28;20039;-41
2023/01/12 00:28:34;;;;;;;88.55;28.35;;;;;;;;;;4961131;28;20046;-46
2023/01/12 00:31:01;;;;;;;92.00;29.05;;;;;;;;;;4957465;28;20043;-42
2023/01/12 00:33:27;;;;;;;104.47;30.38;;;;;;;;;;4957491;28;20072;-43
2023/01/12 00:35:54;;;;;;;91.45;30.08;;;;;;;;;;4958911;28;20035;-44
2023/01/12 00:38:20;;;;;;;114.85;29.90;;;;;;;;;;4959121;28;20038;-45
2023/01/12 00:40:47;;;;;;;84.78;28.77;;;;;;;;;;4962399;28;20138;-44
2023/01/12 00:45:58;;;;;;;83.15;28.58;;;;;;;;;;4955573;28;20047;-46
2023/01/12 00:48:25;;;;;;;109.13;29.08;;;;;;;;;;4958380;28;20452;-45
2023/01/12 00:50:51;;;;;;;112.15;31.65;;;;;;;;;;4958714;28;20124;-45
2023/01/12 00:53:18;;;;;;;100.05;29.80;;;;;;;;;;4958571;28;20051;-47
2023/01/12 00:55:45;;;;;;;94.20;28.63;;;;;;;;;;4957048;28;20569;-42
2023/01/12 00:58:11;;;;;;;101.57;30.30;;;;;;;;;;4955064;28;20043;-45
2023/01/12 01:00:38;;;;;;;91.65;29.77;;;;;;;;;;4958374;28;20121;-45
2023/01/12 01:03:04;;;;;;;102.75;29.55;;;;;;;;;;4956829;28;20047;-44
2023/01/12 01:05:31;;;;;;;111.22;31.35;;;;;;;;;;4959045;28;20104;-46
2023/01/12 01:07:57;;;;;;;95.28;30.75;;;;;;;;;;4955961;28;20043;-43
2023/01/12 01:10:24;;;;;;;126.45;30.25;;;;;;;;;;4954316;28;20046;-43
2023/01/12 01:12:50;;;;;;;85.00;27.42;;;;;;;;;;4959084;28;20405;-46
2023/01/12 01:15:17;;;;;;;88.80;27.52;;;;;;;;;;4958877;28;20057;-45
2023/01/12 01:17:43;;;;;;;133.50;32.10;;;;;;;;;;4961832;28;20039;-44
2023/01/12 01:20:11;;;;;;;108.75;30.98;;;;;;;;;;4957005;28;20051;-42
2023/01/12 01:22:37;;;;;;;80.68;27.42;;;;;;;;;;4957925;28;20050;-45
2023/01/12 01:25:04;;;;;;;101.85;29.20;;;;;;;;;;4955091;28;20138;-45
2023/01/12 01:27:30;;;;;;;100.45;29.95;;;;;;;;;;4959250;28;20124;-46
2023/01/12 01:29:57;;;;;;;86.95;28.67;;;;;;;;;;4960295;28;20414;-45
2023/01/12 01:32:23;;;;;;;128.68;33.15;;;;;;;;;;4957618;28;20051;-42
2023/01/12 01:34:50;;;;;;;75.35;27.80;;;;;;;;;;4955944;28;20046;-44
2023/01/12 01:37:17;;;;;;;98.63;30.02;;;;;;;;;;4954387;28;20046;-42
2023/01/12 01:39:43;;;;;;;112.60;31.20;;;;;;;;;;4958035;28;20061;-48
2023/01/12 01:42:26;;;;;;;96.72;29.67;;;;;;;;;;4956360;28;20098;-41
2023/01/12 01:44:54;;;;;;;85.35;29.25;;;;;;;;;;4958464;28;20055;-46
2023/01/12 01:47:29;;;;;;;104.03;30.60;;;;;;;;;;4957781;28;20034;-42
2023/01/12 01:49:58;;;;;;;79.43;27.70;;;;;;;;;;4956972;28;20043;-47
2023/01/12 01:52:27;;;;;;;116.00;31.30;;;;;;;;;;4954621;28;20043;-42
2023/01/12 01:55:06;;;;;;;92.65;29.85;;;;;;;;;;4955072;28;20090;-45
2023/01/12 01:57:39;;;;;;;94.95;29.17;;;;;;;;;;4958154;28;20051;-42
2023/01/12 02:00:07;;;;;;;90.53;27.75;;;;;;;;;;4956682;28;20039;-46
2023/01/12 02:02:34;;;;;;;104.00;29.40;;;;;;;;;;4972358;28;20090;-45
2023/01/12 02:05:01;;;;;;;121.07;31.27;;;;;;;;;;4954643;28;20047;-43
2023/01/12 02:10:16;;;;;;;139.10;32.42;;;;;;;;;;5218890;23;20055;-46
2023/01/12 02:18:28;;;;;;;114.45;32.70;;;;;;;;;;4940745;28;20047;-48
2023/01/12 02:21:04;;;;;;;112.93;32.55;;;;;;;;;;4943302;29;20623;-47
2023/01/12 02:23:50;;;;;;;117.80;32.50;;;;;;;;;;4945227;28;20066;-51
2023/01/12 02:26:31;;;;;;;114.07;32.13;;;;;;;;;;4944222;29;20059;-47
2023/01/12 02:28:57;;;;;;;105.07;31.92;;;;;;;;;;4941836;29;20043;-49
2023/01/12 02:31:24;;;;;;;145.07;33.08;;;;;;;;;;4940791;28;20070;-50
2023/01/12 02:33:53;;;;;;;137.10;37.28;;;;;;;;;;4940904;28;20043;-51
2023/01/12 02:36:38;;;;;;;132.90;33.33;;;;;;;;;;4941347;28;20051;-50
2023/01/12 02:39:11;;;;;;;92.03;32.22;;;;;;;;;;4939998;28;20047;-44
2023/01/12 02:44:37;;;;;;;87.32;29.98;;;;;;;;;;4942861;28;20119;-48
2023/01/12 02:47:05;;;;;;;112.85;34.67;;;;;;;;;;4940549;29;20126;-48
2023/01/12 02:49:35;;;;;;;92.35;30.33;;;;;;;;;;4945582;28;20039;-45
2023/01/12 02:52:08;;;;;;;88.20;31.20;;;;;;;;;;4944397;28;20374;-46
2023/01/12 02:54:35;;;;;;;133.02;35.33;;;;;;;;;;4941448;29;20047;-43
2023/01/12 02:57:04;;;;;;;87.13;31.75;;;;;;;;;;4941095;28;20125;-44
2023/01/12 02:59:32;;;;;;;86.93;32.90;;;;;;;;;;4942277;28;20489;-44
2023/01/12 03:02:09;;;;;;;120.05;34.25;;;;;;;;;;4941947;28;20048;-44
2023/01/12 03:04:36;;;;;;;108.70;33.83;;;;;;;;;;4939275;28;20131;-45
2023/01/12 03:07:03;;;;;;;135.52;36.05;;;;;;;;;;4944047;28;20035;-45
2023/01/12 03:09:38;;;;;;;119.13;33.95;;;;;;;;;;4942350;28;20070;-45
2023/01/12 03:12:06;;;;;;;93.43;32.03;;;;;;;;;;4942107;29;20047;-45
2023/01/12 03:14:35;;;;;;;97.72;31.70;;;;;;;;;;4941295;28;20417;-46
2023/01/12 03:17:04;;;;;;;104.93;33.40;;;;;;;;;;4943148;28;20054;-46
2023/01/12 03:19:31;;;;;;;104.80;32.65;;;;;;;;;;4945693;28;20047;-44
2023/01/12 03:21:59;;;;;;;119.90;33.95;;;;;;;;;;4945039;28;20062;-44
2023/01/12 03:24:31;;;;;;;123.47;35.15;;;;;;;;;;4942924;28;20493;-46
2023/01/12 03:27:00;;;;;;;124.65;36.08;;;;;;;;;;4940896;28;20050;-44
2023/01/12 03:29:29;;;;;;;107.75;34.33;;;;;;;;;;4945998;28;20067;-43
2023/01/12 03:31:55;;;;;;;80.93;30.17;;;;;;;;;;4943434;28;20048;-47
2023/01/12 03:34:22;;;;;;;127.18;35.95;;;;;;;;;;4945596;28;20122;-46
2023/01/12 03:36:58;;;;;;;121.32;35.88;;;;;;;;;;4945329;28;20040;-44
2023/01/12 03:39:42;;;;;;;143.10;34.58;;;;;;;;;;4943744;29;20052;-43
2023/01/12 03:42:08;;;;;;;94.65;32.97;;;;;;;;;;4944805;29;20048;-44
2023/01/12 03:44:56;;;;;;;121.05;34.42;;;;;;;;;;4943749;28;20044;-43
2023/01/12 03:47:27;;;;;;;111.88;34.95;;;;;;;;;;4943126;29;20047;-45
2023/01/12 03:50:00;;;;;;;99.88;34.25;;;;;;;;;;4947196;29;20413;-45
2023/01/12 03:52:28;;;;;;;128.02;36.97;;;;;;;;;;4944470;29;20059;-44
2023/01/12 03:54:55;;;;;;;97.13;32.65;;;;;;;;;;4945213;28;20050;-46
2023/01/12 03:57:22;;;;;;;139.15;38.40;;;;;;;;;;4943001;28;20079;-45
2023/01/12 03:59:48;;;;;;;111.57;36.20;;;;;;;;;;4949235;28;20422;-46
2023/01/12 04:02:15;;;;;;;144.48;38.05;;;;;;;;;;4946883;28;20054;-46
2023/01/12 04:04:41;;;;;;;108.03;36.00;;;;;;;;;;4948332;28;20484;-44
2023/01/12 04:07:08;;;;;;;121.30;36.30;;;;;;;;;;4943092;28;20050;-44
2023/01/12 04:09:34;;;;;;;146.25;38.13;;;;;;;;;;4944583;28;20051;-44
2023/01/12 04:12:10;;;;;;;101.53;36.53;;;;;;;;;;4945287;28;20044;-44
2023/01/12 04:14:41;;;;;;;109.50;36.63;;;;;;;;;;4944471;28;20043;-46
2023/01/12 04:17:08;;;;;;;107.57;34.38;;;;;;;;;;4948604;29;20047;-44
2023/01/12 04:19:35;;;;;;;146.90;38.10;;;;;;;;;;4945677;29;20044;-45
2023/01/12 04:24:47;;;;;;;107.65;34.70;;;;;;;;;;4947941;28;20035;-47
2023/01/12 04:27:14;;;;;;;107.13;35.33;;;;;;;;;;4946205;28;20441;-45
2023/01/12 04:29:41;;;;;;;95.13;34.65;;;;;;;;;;4958832;28;20047;-44
2023/01/12 04:32:07;;;;;;;112.53;36.88;;;;;;;;;;4941366;29;20513;-45
2023/01/12 04:34:34;;;;;;;133.50;38.97;;;;;;;;;;4945521;28;20051;-45
2023/01/12 04:37:01;;;;;;;109.90;36.05;;;;;;;;;;4945060;28;20071;-43
2023/01/12 04:39:28;;;;;;;140.02;36.78;;;;;;;;;;4944289;28;20036;-44
2023/01/12 04:41:54;;;;;;;138.13;37.40;;;;;;;;;;4942393;28;20054;-45
2023/01/12 04:44:20;;;;;;;110.22;33.65;;;;;;;;;;4944336;28;20043;-44
2023/01/12 04:46:47;;;;;;;93.65;32.53;;;;;;;;;;4947725;28;20466;-45
2023/01/12 04:49:14;;;;;;;123.00;37.20;;;;;;;;;;4942712;28;20043;-47
2023/01/12 04:51:41;;;;;;;128.70;35.58;;;;;;;;;;4943804;28;20063;-44
2023/01/12 04:54:08;;;;;;;122.65;37.20;;;;;;;;;;4942995;28;20446;-45
2023/01/12 04:56:35;;;;;;;124.28;36.50;;;;;;;;;;4945884;28;20051;-44
2023/01/12 04:59:01;;;;;;;125.68;37.58;;;;;;;;;;4945582;29;20051;-45
2023/01/12 05:01:28;;;;;;;155.68;41.63;;;;;;;;;;4945326;29;20134;-44
2023/01/12 05:03:56;;;;;;;147.95;41.95;;;;;;;;;;4942683;28;20118;-44
2023/01/12 05:06:23;;;;;;;152.93;44.88;;;;;;;;;;4941974;29;20062;-44
2023/01/12 05:11:34;;;;;;;116.45;39.67;;;;;;;;;;4943809;28;20051;-45
2023/01/12 05:14:01;;;;;;;127.22;41.10;;;;;;;;;;4944238;28;20094;-45
2023/01/12 05:16:28;;;;;;;140.45;38.10;;;;;;;;;;4945123;28;20043;-44
2023/01/12 05:18:54;;;;;;;115.05;36.17;;;;;;;;;;4946762;28;20090;-45
2023/01/12 05:21:22;;;;;;;130.85;39.10;;;;;;;;;;4944305;28;20074;-44
2023/01/12 05:23:50;;;;;;;127.85;36.13;;;;;;;;;;4945403;28;20409;-44
2023/01/12 05:26:16;;;;;;;147.50;41.20;;;;;;;;;;4947058;28;20051;-44
2023/01/12 05:28:45;;;;;;;146.73;40.13;;;;;;;;;;4944207;28;20050;-43
2023/01/12 05:31:12;;;;;;;127.10;38.20;;;;;;;;;;4945122;28;20047;-44
2023/01/12 05:33:39;;;;;;;148.57;41.78;;;;;;;;;;4943516;28;20051;-45
2023/01/12 05:36:07;;;;;;;137.68;41.47;;;;;;;;;;4942248;28;20047;-46
2023/01/12 05:38:34;;;;;;;162.77;44.20;;;;;;;;;;4945128;29;20048;-45
2023/01/12 05:41:01;;;;;;;145.25;46.53;;;;;;;;;;4949885;29;20051;-44
2023/01/12 05:46:14;;;;;;;166.52;49.22;;;;;;;;;;4946703;29;20572;-45
2023/01/12 05:48:40;;;;;;;180.77;51.30;;;;;;;;;;4944623;28;20103;-45
2023/01/12 05:51:08;;;;;;;197.13;50.65;;;;;;;;;;4936551;29;20044;-44
2023/01/12 05:53:35;;;;;;;138.90;43.85;;;;;;;;;;4946879;28;20050;-46
2023/01/12 05:56:14;;;;;;;155.05;45.75;;;;;;;;;;4944426;28;20053;-46
2023/01/12 05:58:41;;;;;;;125.15;40.17;;;;;;;;;;4943453;29;20043;-44
2023/01/12 06:01:08;;;;;;;109.63;35.15;;;;;;;;;;4943711;28;20043;-46
2023/01/12 06:03:35;;;;;;;176.52;41.85;;;;;;;;;;4941412;28;20047;-43
2023/01/12 06:06:02;;;;;;;133.90;41.45;;;;;;;;;;4945896;28;20051;-45
2023/01/12 06:08:28;;;;;;;135.60;40.17;;;;;;;;;;4944581;28;20039;-46
2023/01/12 06:10:58;;;;;;;140.73;42.17;;;;;;;;;;4946095;28;20047;-43
2023/01/12 06:16:10;;;;;;;118.43;37.10;;;;;;;;;;4943399;29;20061;-44
2023/01/12 06:18:37;;;;;;;151.43;38.40;;;;;;;;;;4945134;28;20135;-45
2023/01/12 06:21:04;;;;;;;101.97;34.78;;;;;;;;;;4942570;29;20047;-46
2023/01/12 06:23:31;;;;;;;123.80;36.90;;;;;;;;;;4941016;28;20054;-44
2023/01/12 06:26:04;;;;;;;128.48;36.83;;;;;;;;;;4945096;28;20115;-44
2023/01/12 06:28:31;;;;;;;134.30;36.50;;;;;;;;;;4945143;29;20540;-44
2023/01/12 06:30:58;;;;;;;136.13;40.72;;;;;;;;;;4944220;28;20050;-45
2023/01/12 06:33:25;;;;;;;148.27;43.80;;;;;;;;;;4940660;28;20525;-44
2023/01/12 06:35:52;;;;;;;114.80;40.03;;;;;;;;;;4947996;28;20043;-45
2023/01/12 06:38:19;;;;;;;125.97;39.65;;;;;;;;;;4945217;28;20043;-44
2023/01/12 06:40:46;;;;;;;104.95;37.92;;;;;;;;;;4943784;28;20039;-44
2023/01/12 06:43:12;;;;;;;110.47;37.17;;;;;;;;;;4940502;28;20490;-45
2023/01/12 06:45:38;;;;;;;129.90;39.35;;;;;;;;;;4944907;28;20052;-45
2023/01/12 06:48:05;;;;;;;120.03;38.22;;;;;;;;;;4942219;28;20653;-45
2023/01/12 06:50:32;;;;;;;112.30;36.05;;;;;;;;;;4941789;29;20042;-44
2023/01/12 06:52:59;;;;;;;138.43;38.30;;;;;;;;;;4945755;29;20047;-45
2023/01/12 06:55:26;;;;;;;128.15;36.80;;;;;;;;;;4942571;28;20052;-45
2023/01/12 06:57:52;;;;;;;121.82;37.33;;;;;;;;;;4946583;28;20087;-43
2023/01/12 07:00:19;;;;;;;127.72;37.13;;;;;;;;;;4938676;28;20418;-45
2023/01/12 07:02:49;;;;;;;138.38;35.83;;;;;;;;;;4942269;28;20050;-44
2023/01/12 07:05:16;;;;;;;128.55;38.75;;;;;;;;;;4942053;28;20050;-45
2023/01/12 07:07:43;;;;;;;105.63;33.90;;;;;;;;;;4947826;29;20058;-44
2023/01/12 07:10:10;;;;;;;114.00;34.75;;;;;;;;;;4945451;29;20051;-45
2023/01/12 07:12:37;;;;;;;147.30;38.58;;;;;;;;;;4945433;29;20043;-45
2023/01/12 07:15:04;;;;;;;120.15;36.00;;;;;;;;;;4948247;28;20043;-45
2023/01/12 07:17:30;;;;;;;159.30;40.53;;;;;;;;;;4947159;28;20074;-44
2023/01/12 07:19:57;;;;;;;128.80;40.95;;;;;;;;;;4944233;28;20075;-45
2023/01/12 07:22:25;;;;;;;106.60;35.45;;;;;;;;;;4945608;28;20058;-44
2023/01/12 07:24:51;;;;;;;121.22;37.53;;;;;;;;;;4948103;28;20043;-44
2023/01/12 07:27:18;;;;;;;153.40;41.85;;;;;;;;;;4945644;28;20077;-46
2023/01/12 07:29:45;;;;;;;109.35;37.67;;;;;;;;;;4943157;28;20054;-45
2023/01/12 07:32:11;;;;;;;128.60;41.25;;;;;;;;;;4943591;28;20047;-46
2023/01/12 07:34:38;;;;;;;127.93;42.03;;;;;;;;;;4946736;28;20138;-45
2023/01/12 07:37:05;;;;;;;111.70;38.08;;;;;;;;;;4943779;28;20134;-46
2023/01/12 07:39:31;;;;;;;161.68;42.42;;;;;;;;;;4943376;29;20046;-46
2023/01/12 07:45:00;;;;;;;97.22;34.78;;;;;;;;;;4913188;29;20430;-47
2023/01/12 07:47:27;;;;;;;122.80;37.15;;;;;;;;;;4912060;29;20542;-46
2023/01/12 07:49:53;;;;;;;131.70;37.08;;;;;;;;;;4912049;29;20054;-45
2023/01/12 07:52:20;;;;;;;122.80;37.17;;;;;;;;;;4912521;29;20052;-45
2023/01/12 07:54:46;;;;;;;115.93;34.17;;;;;;;;;;4911976;29;20741;-47
2023/01/12 07:57:12;;;;;;;106.07;33.65;;;;;;;;;;4912988;29;20515;-44
2023/01/12 07:59:39;;;;;;;110.07;34.83;;;;;;;;;;4911877;29;20048;-45
2023/01/12 08:02:06;;;;;;;111.97;36.55;;;;;;;;;;4912172;29;20442;-46
2023/01/12 08:04:32;;;;;;;120.97;36.03;;;;;;;;;;4911276;29;20055;-47
2023/01/12 08:06:59;;;;;;;95.18;34.95;;;;;;;;;;4912243;29;20144;-45
2023/01/12 08:09:26;;;;;;;104.85;35.80;;;;;;;;;;4912375;29;20044;-45
2023/01/12 08:11:53;;;;;;;120.95;36.75;;;;;;;;;;4910899;29;20050;-45
2023/01/12 08:14:27;;;;;;;123.65;37.00;;;;;;;;;;4911778;29;20530;-45
2023/01/12 08:16:55;;;;;;;114.25;40.65;;;;;;;;;;4911735;29;20044;-44
2023/01/12 08:19:25;;;;;;;97.95;34.90;;;;;;;;;;4930190;28;20056;-47
2023/01/12 08:21:56;;;;;;;94.18;34.30;;;;;;;;;;4948443;28;20118;-45
2023/01/12 08:24:26;;;;;;;102.32;31.73;;;;;;;;;;4942535;29;20051;-46
2023/01/12 08:26:54;;;;;;;98.00;31.63;;;;;;;;;;4945502;29;20043;-48
2023/01/12 08:29:29;;;;;;;88.90;30.48;;;;;;;;;;4943152;28;20413;-46
2023/01/12 08:32:00;;;;;;;89.55;32.42;;;;;;;;;;4947518;28;20047;-46
2023/01/12 08:34:30;;;;;;;74.72;31.08;;;;;;;;;;4945296;28;20470;-44
2023/01/12 08:36:57;;;;;;;79.88;28.65;;;;;;;;;;4944804;29;20055;-44
2023/01/12 08:39:24;;;;;;;98.07;31.90;;;;;;;;;;4942336;28;20043;-43
2023/01/12 08:41:50;;;;;;;90.30;30.95;;;;;;;;;;4944763;28;20043;-44
2023/01/12 08:44:17;;;;;;;96.32;31.30;;;;;;;;;;4942503;29;20040;-43
2023/01/12 08:46:43;;;;;;;99.85;31.58;;;;;;;;;;4945379;28;20115;-45
2023/01/12 08:49:10;;;;;;;103.90;32.17;;;;;;;;;;4948480;28;20134;-44
2023/01/12 08:51:42;;;;;;;102.47;32.72;;;;;;;;;;4943384;28;20051;-43
2023/01/12 08:54:09;;;;;;;107.07;33.60;;;;;;;;;;4943801;28;20043;-44
2023/01/12 08:56:36;;;;;;;91.85;31.58;;;;;;;;;;4943470;29;20047;-46
2023/01/12 08:59:03;;;;;;;90.25;29.83;;;;;;;;;;4940682;29;20498;-44
2023/01/12 09:01:29;;;;;;;98.60;30.80;;;;;;;;;;4947029;28;20055;-44
2023/01/12 09:03:57;;;;;;;75.40;28.02;;;;;;;;;;4942231;29;20552;-43
2023/01/12 09:06:25;;;;;;;78.32;26.98;;;;;;;;;;4951377;28;20054;-44
2023/01/12 09:08:52;;;;;;;93.88;27.92;;;;;;;;;;4941758;28;20047;-44
2023/01/12 09:11:19;;;;;;;127.57;30.50;;;;;;;;;;4945829;28;20602;-45
2023/01/12 09:13:45;;;;;;;82.28;27.13;;;;;;;;;;4951659;28;20073;-44
2023/01/12 09:16:13;;;;;;;93.47;28.00;;;;;;;;;;4950147;28;20039;-44
2023/01/12 09:18:40;;;;;;;94.80;29.08;;;;;;;;;;4946852;28;20051;-46
2023/01/12 09:21:08;;;;;;;64.75;23.58;;;;;;;;;;4942185;28;20057;-46
2023/01/12 09:23:35;;;;;;;65.80;23.80;;;;;;;;;;4944818;29;20516;-49
2023/01/12 09:26:06;;;;;;;64.30;25.40;;;;;;;;;;4950237;28;20047;-46
2023/01/12 09:28:33;;;;;;;85.53;27.35;;;;;;;;;;4937474;28;20048;-46
2023/01/12 09:31:03;;;;;;;82.90;26.65;;;;;;;;;;4943342;28;20065;-44
2023/01/12 09:33:29;;;;;;;80.70;28.08;;;;;;;;;;4942791;28;20055;-44
2023/01/12 09:36:00;;;;;;;67.25;26.33;;;;;;;;;;4942190;29;20040;-48
2023/01/12 09:38:26;;;;;;;121.18;30.73;;;;;;;;;;4942054;29;20048;-44
2023/01/12 09:40:53;;;;;;;74.18;26.40;;;;;;;;;;4946058;29;20526;-47
2023/01/12 09:48:55;;;;;;;75.68;24.50;;;;;;;;;;4946513;29;20043;-44
2023/01/12 09:51:27;;;;;;;64.03;23.00;;;;;;;;;;4941856;29;20040;-44
2023/01/12 09:53:54;;;;;;;59.90;25.73;;;;;;;;;;4945257;28;20580;-44
2023/01/12 09:56:26;;;;;;;66.88;23.10;;;;;;;;;;4943377;28;20637;-45
2023/01/12 09:59:06;;;;;;;63.17;21.42;;;;;;;;;;4943509;28;20065;-46
2023/01/12 10:01:34;;;;;;;70.18;23.48;;;;;;;;;;4957967;28;20055;-46
2023/01/12 10:04:02;;;;;;;58.10;24.08;;;;;;;;;;4941391;29;20067;-43
2023/01/12 10:06:28;;;;;;;70.63;24.02;;;;;;;;;;4941473;28;20043;-44
2023/01/12 10:09:03;;;;;;;64.50;24.95;;;;;;;;;;4940716;29;20738;-44
2023/01/12 10:11:48;;;;;;;69.55;25.25;;;;;;;;;;4947120;28;20050;-44
2023/01/12 10:14:22;;;;;;;77.25;26.60;;;;;;;;;;4940847;29;20107;-45
2023/01/12 10:16:54;;;;;;;75.85;25.83;;;;;;;;;;4944427;28;20489;-45
2023/01/12 10:19:24;;;;;;;74.30;24.58;;;;;;;;;;4944148;28;20055;-44
2023/01/12 10:21:52;;;;;;;68.13;20.98;;;;;;;;;;4942257;28;20393;-44
2023/01/12 10:24:23;;;;;;;57.90;19.13;;;;;;;;;;4942388;29;20071;-44
2023/01/12 10:26:55;;;;;;;64.82;18.38;;;;;;;;;;4941388;29;20562;-46
2023/01/12 10:29:21;;;;;;;51.38;17.85;;;;;;;;;;4945921;28;20560;-44
2023/01/12 10:31:48;;;;;;;60.67;18.80;;;;;;;;;;4943820;28;20043;-44
2023/01/12 10:34:14;;;;;;;62.45;18.20;;;;;;;;;;4940466;29;20047;-46
2023/01/12 10:36:42;;;;;;;66.55;18.70;;;;;;;;;;4941247;29;20127;-45
2023/01/12 10:39:28;;;;;;;55.88;17.88;;;;;;;;;;4940543;28;20462;-44
2023/01/12 10:43:17;;;;;;;61.70;18.52;;;;;;;;;;4943947;29;20049;-48
2023/01/12 10:45:15;;;;;;;46.00;15.32;;;;;;;;;;4939838;29;20405;-47
2023/01/12 10:47:43;;;;;;;60.05;15.98;;;;;;;;;;4939002;29;20055;-45
2023/01/12 10:50:19;;;;;;;51.22;15.88;;;;;;;;;;4944962;28;20055;-45
2023/01/12 10:52:46;;;;;;;54.67;15.38;;;;;;;;;;4941514;29;20058;-43
2023/01/12 10:55:17;;;;;;;57.00;14.13;;;;;;;;;;4941942;29;20045;-45
2023/01/12 10:57:45;;;;;;;54.92;14.02;;;;;;;;;;4941738;29;20051;-44
2023/01/12 11:00:19;;;;;;;45.22;13.35;;;;;;;;;;4944215;28;20056;-50
2023/01/12 11:02:45;;;;;;;85.80;16.83;;;;;;;;;;4941987;29;20066;-45
2023/01/12 11:05:26;;;;;;;46.22;11.30;;;;;;;;;;4940659;29;20574;-47
2023/01/12 11:07:52;;;;;;;45.70;12.15;;;;;;;;;;4942118;28;20039;-44
2023/01/12 11:10:25;;;;;;;43.35;11.10;;;;;;;;;;4944786;28;20048;-44
2023/01/12 11:12:57;;;;;;;62.08;12.07;;;;;;;;;;4940879;29;20043;-44
2023/01/12 11:15:25;;;;;;;42.72;10.93;;;;;;;;;;4942786;28;20040;-44
2023/01/12 11:17:57;;;;;;;38.83;10.23;;;;;;;;;;4941114;28;20057;-44
2023/01/12 11:20:38;;;;;;;69.23;12.13;;;;;;;;;;4944233;29;20044;-44
2023/01/12 11:23:16;;;;;;;36.95;9.68;;;;;;;;;;4939010;28;20044;-43
2023/01/12 11:25:48;;;;;;;45.13;9.50;;;;;;;;;;4939216;29;20443;-44
2023/01/12 11:28:36;;;;;;;50.58;10.35;;;;;;;;;;4944770;29;22449;-44
2023/01/12 11:31:08;;;;;;;46.55;9.82;;;;;;;;;;4942397;29;20074;-45
2023/01/12 11:33:40;;;;;;;41.72;9.02;;;;;;;;;;4940560;29;20035;-44
2023/01/12 11:36:07;;;;;;;48.92;10.57;;;;;;;;;;4938332;29;20044;-44
2023/01/12 11:38:42;;;;;;;50.20;10.93;;;;;;;;;;4942159;28;20414;-45
2023/01/12 11:41:15;;;;;;;68.22;11.85;;;;;;;;;;4939998;28;20046;-45
2023/01/12 11:43:54;;;;;;;46.38;11.57;;;;;;;;;;4940555;29;20071;-43
2023/01/12 11:46:37;;;;;;;44.90;9.98;;;;;;;;;;4941790;28;20047;-44
2023/01/12 11:49:10;;;;;;;38.47;8.18;;;;;;;;;;4942982;28;20055;-44
2023/01/12 11:51:37;;;;;;;44.45;9.13;;;;;;;;;;4941737;28;20408;-43
2023/01/12 11:54:11;;;;;;;51.92;9.20;;;;;;;;;;4942147;29;20051;-43
2023/01/12 11:56:46;;;;;;;48.28;8.95;;;;;;;;;;4941531;29;20054;-46
2023/01/12 11:59:22;;;;;;;55.45;8.80;;;;;;;;;;4947425;29;20391;-44
2023/01/12 12:01:54;;;;;;;42.40;8.45;;;;;;;;;;4943894;29;20465;-44
2023/01/12 12:04:27;;;;;;;43.40;7.65;;;;;;;;;;4942331;29;20677;-46
2023/01/12 12:07:23;;;;;;;35.42;7.00;;;;;;;;;;4945794;29;20075;-43
2023/01/12 12:10:01;;;;;;;63.10;10.27;;;;;;;;;;4930873;29;20485;-44
2023/01/12 12:12:39;;;;;;;33.47;8.30;;;;;;;;;;4931615;29;20183;-44
2023/01/12 12:15:24;;;;;;;42.65;8.52;;;;;;;;;;4930056;29;20055;-47
2023/01/12 12:18:09;;;;;;;38.22;7.68;;;;;;;;;;4931019;29;20123;-45
2023/01/12 12:20:54;;;;;;;66.25;11.63;;;;;;;;;;4931083;29;20051;-45
2023/01/12 12:23:24;;;;;;;46.53;9.10;;;;;;;;;;4929233;29;20051;-44
2023/01/12 12:25:54;;;;;;;53.30;8.95;;;;;;;;;;4930944;28;20497;-43
2023/01/12 12:28:30;;;;;;;42.35;8.02;;;;;;;;;;4931310;29;20386;-45
2023/01/12 12:30:56;;;;;;;42.53;8.43;;;;;;;;;;4930794;29;20082;-44
2023/01/12 12:33:34;;;;;;;52.35;9.82;;;;;;;;;;4929674;29;20059;-46
2023/01/12 12:36:15;;;;;;;53.15;8.38;;;;;;;;;;4931473;29;20120;-44
2023/01/12 12:39:11;;;;;;;46.88;8.18;;;;;;;;;;4930348;29;20566;-44
2023/01/12 12:47:30;;;;;;;41.63;7.78;;;;;;;;;;4943109;28;20055;-45
2023/01/12 12:49:58;;;;;;;66.00;9.30;;;;;;;;;;4943606;28;20054;-45
2023/01/12 12:52:28;;;;;;;45.60;8.20;;;;;;;;;;4943835;29;20043;-44
2023/01/12 12:54:57;;;;;;;45.38;7.43;;;;;;;;;;4947191;29;20041;-44
2023/01/12 12:57:24;;;;;;;43.97;7.68;;;;;;;;;;4941862;29;20048;-48
2023/01/12 12:59:52;;;;;;;42.30;7.18;;;;;;;;;;4942238;28;20043;-45
2023/01/12 13:02:30;;;;;;;57.50;8.80;;;;;;;;;;4944808;28;20053;-44
2023/01/12 13:04:58;;;;;;;42.30;7.82;;;;;;;;;;4943122;28;20069;-45
2023/01/12 13:07:25;;;;;;;55.25;8.57;;;;;;;;;;4942834;28;20047;-46
2023/01/12 13:10:00;;;;;;;58.28;9.05;;;;;;;;;;4944402;29;20086;-46
2023/01/12 13:12:32;;;;;;;46.70;8.00;;;;;;;;;;4945409;29;20043;-44
2023/01/12 13:15:17;;;;;;;53.05;8.52;;;;;;;;;;4940285;29;20043;-43
2023/01/12 13:17:45;;;;;;;51.08;9.27;;;;;;;;;;4945763;28;20131;-43
2023/01/12 13:20:11;;;;;;;57.92;9.02;;;;;;;;;;4942548;28;20043;-45
2023/01/12 13:22:51;;;;;;;41.35;8.27;;;;;;;;;;4941378;28;20067;-47
2023/01/12 13:25:23;;;;;;;48.38;8.82;;;;;;;;;;4946259;29;20043;-45
2023/01/12 13:27:59;;;;;;;43.42;8.10;;;;;;;;;;4942904;29;20409;-44
2023/01/12 13:30:29;;;;;;;63.28;9.77;;;;;;;;;;4944562;29;20606;-46
2023/01/12 13:32:55;;;;;;;41.20;7.85;;;;;;;;;;4941491;28;20098;-44
2023/01/12 13:35:22;;;;;;;44.70;8.52;;;;;;;;;;4942679;29;20048;-43
2023/01/12 13:38:12;;;;;;;42.25;8.50;;;;;;;;;;4944574;28;20054;-45
2023/01/12 13:40:39;;;;;;;70.53;10.27;;;;;;;;;;4944234;29;20074;-44
2023/01/12 13:43:18;;;;;;;62.35;9.48;;;;;;;;;;4940346;29;20039;-44
2023/01/12 13:45:47;;;;;;;81.10;10.90;;;;;;;;;;4941879;28;20040;-45
2023/01/12 13:48:14;;;;;;;51.35;8.48;;;;;;;;;;4942661;28;20043;-43
2023/01/12 13:50:49;;;;;;;72.72;11.00;;;;;;;;;;4940977;28;20111;-44
2023/01/12 13:53:26;;;;;;;55.65;8.55;;;;;;;;;;4940379;29;20134;-45
2023/01/12 13:56:04;;;;;;;50.92;8.57;;;;;;;;;;4946096;29;20086;-44
2023/01/12 13:58:38;;;;;;;37.63;7.88;;;;;;;;;;4941399;29;20043;-44
2023/01/12 14:01:13;;;;;;;38.13;7.85;;;;;;;;;;4942379;29;20042;-45
2023/01/12 14:03:55;;;;;;;67.15;10.75;;;;;;;;;;4940779;29;20405;-45
2023/01/12 14:06:40;;;;;;;64.38;9.40;;;;;;;;;;4947024;29;20107;-44
2023/01/12 14:09:29;;;;;;;42.08;7.95;;;;;;;;;;4944952;28;20042;-43
2023/01/12 14:12:03;;;;;;;44.40;8.65;;;;;;;;;;4942305;29;20143;-44
2023/01/12 14:20:18;;;;;;;53.65;8.98;;;;;;;;;;4940226;28;20122;-48
2023/01/12 14:22:45;;;;;;;49.35;8.57;;;;;;;;;;4940739;28;20051;-44
2023/01/12 14:25:13;;;;;;;55.17;8.88;;;;;;;;;;4944159;28;20043;-44
2023/01/12 14:27:47;;;;;;;64.22;9.85;;;;;;;;;;4941997;28;20043;-44
2023/01/12 14:30:13;;;;;;;44.38;8.18;;;;;;;;;;4935907;29;20089;-45
2023/01/12 14:32:44;;;;;;;75.05;10.55;;;;;;;;;;4940209;28;20054;-44
2023/01/12 14:35:14;;;;;;;51.50;8.90;;;;;;;;;;4945150;28;20047;-44
2023/01/12 14:37:41;;;;;;;41.13;9.25;;;;;;;;;;4941466;28;20550;-46
2023/01/12 14:40:22;;;;;;;53.47;9.15;;;;;;;;;;4941804;28;20043;-45
2023/01/12 14:48:27;;;;;;;32.90;6.57;;;;;;;;;;4941262;29;20690;-44
2023/01/12 14:51:16;;;;;;;35.05;6.85;;;;;;;;;;4941202;28;20051;-47
2023/01/12 14:53:44;;;;;;;38.83;7.88;;;;;;;;;;4940739;29;20484;-44
2023/01/12 14:56:10;;;;;;;51.25;8.65;;;;;;;;;;4941513;29;20036;-44
2023/01/12 14:58:37;;;;;;;52.70;9.70;;;;;;;;;;4953729;28;20051;-45
2023/01/12 15:01:03;;;;;;;52.47;9.40;;;;;;;;;;4942565;28;20156;-43
2023/01/12 15:03:30;;;;;;;42.08;9.65;;;;;;;;;;4939287;28;20126;-50
2023/01/12 15:06:12;;;;;;;42.65;9.35;;;;;;;;;;4945327;29;20115;-46
2023/01/12 15:08:50;;;;;;;61.40;10.35;;;;;;;;;;4941595;28;20412;-47
2023/01/12 15:11:26;;;;;;;42.40;9.00;;;;;;;;;;4941024;28;20545;-43
2023/01/12 15:13:57;;;;;;;41.78;8.88;;;;;;;;;;4944712;28;20118;-42
2023/01/12 15:27:25;;;;;;;38.80;9.07;;;;;;;;;;4945343;28;20047;-44
2023/01/12 15:29:52;;;;;;;57.92;9.82;;;;;;;;;;4944668;28;20059;-45
2023/01/12 15:32:30;;;;;;;50.85;10.40;;;;;;;;;;4948505;29;20039;-46
2023/01/12 15:35:22;;;;;;;41.45;9.45;;;;;;;;;;4946521;29;20040;-46